createdAt,value
2023-05-08T00:01:23.804Z,5.00
2023-05-08T00:04:27.373Z,5.50
2023-05-08T00:07:32.286Z,4.00
2023-05-08T00:10:36.259Z,5.00
2023-05-08T00:13:41.436Z,9.75
2023-05-08T00:16:45.098Z,4.00
2023-05-08T00:19:49.231Z,6.75
2023-05-08T00:22:54.179Z,6.75
2023-05-08T00:25:57.677Z,3.50
2023-05-08T00:29:01.189Z,7.50
2023-05-08T00:32:04.870Z,2.50
2023-05-08T00:35:08.847Z,5.00
2023-05-08T00:38:13.776Z,6.00
2023-05-08T00:41:17.312Z,6.00
2023-05-08T00:44:20.727Z,6.00
2023-05-08T00:47:24.503Z,2.75
2023-05-08T00:50:28.090Z,10.25
2023-05-08T00:53:37.228Z,5.00
2023-05-08T00:56:41.427Z,3.00
2023-05-08T00:59:47.251Z,5.50
2023-05-08T01:02:51.126Z,6.50
2023-05-08T01:05:55.855Z,8.00
2023-05-08T01:09:00.962Z,5.50
2023-05-08T01:12:14.141Z,3.25
2023-05-08T01:15:22.704Z,4.00
2023-05-08T01:18:32.976Z,5.50
2023-05-08T01:21:44.376Z,4.50
2023-05-08T01:25:17.491Z,7.50
2023-05-08T01:28:42.104Z,3.75
2023-05-08T01:32:03.640Z,6.00
2023-05-08T01:35:17.821Z,7.00
2023-05-08T01:38:32.013Z,8.00
2023-05-08T01:41:38.262Z,4.00
2023-05-08T01:44:47.124Z,9.00
2023-05-08T01:48:01.869Z,6.75
2023-05-08T01:51:09.934Z,3.75
2023-05-08T01:54:17.809Z,14.50
2023-05-08T01:57:23.900Z,7.50
2023-05-08T02:00:28.642Z,10.00
2023-05-08T02:03:36.299Z,9.00
2023-05-08T02:06:42.062Z,9.25
2023-05-08T02:09:46.123Z,7.00
2023-05-08T02:12:52.292Z,7.00
2023-05-08T02:15:57.569Z,7.50
2023-05-08T02:19:04.331Z,12.25
2023-05-08T02:22:11.939Z,6.75
2023-05-08T02:25:17.527Z,6.00
2023-05-08T02:28:21.946Z,6.00
2023-05-08T02:31:26.960Z,5.00
2023-05-08T02:34:34.530Z,6.75
2023-05-08T02:37:39.757Z,6.50
2023-05-08T02:40:47.390Z,6.25
2023-05-08T02:43:53.027Z,6.75
2023-05-08T02:47:00.256Z,8.00
2023-05-08T02:50:11.593Z,7.50
2023-05-08T02:53:26.872Z,3.00
2023-05-08T02:56:37.783Z,7.00
2023-05-08T02:59:48.446Z,8.00
2023-05-08T03:02:57.190Z,7.00
2023-05-08T03:06:05.350Z,8.50
2023-05-08T03:09:19.674Z,11.00
2023-05-08T03:12:28.264Z,7.00
2023-05-08T03:15:36.964Z,9.25
2023-05-08T03:18:49.263Z,9.50
2023-05-08T03:21:57.667Z,6.25
2023-05-08T03:25:05.322Z,6.50
2023-05-08T03:28:12.274Z,9.00
2023-05-08T03:31:19.476Z,8.50
2023-05-08T03:34:25.197Z,9.00
2023-05-08T03:37:31.218Z,14.00
2023-05-08T03:40:38.978Z,5.75
2023-05-08T03:43:43.422Z,10.00
2023-05-08T03:46:49.182Z,7.00
2023-05-08T03:49:53.180Z,9.00
2023-05-08T03:52:59.927Z,6.75
2023-05-08T03:56:04.141Z,10.00
2023-05-08T03:59:18.771Z,14.00
2023-05-08T04:02:30.516Z,15.25
2023-05-08T04:05:40.123Z,9.00
2023-05-08T04:08:53.681Z,6.50
2023-05-08T04:12:04.749Z,11.75
2023-05-08T04:15:15.719Z,9.75
2023-05-08T04:18:25.388Z,6.00
2023-05-08T04:21:31.798Z,6.00
2023-05-08T04:24:43.269Z,5.50
2023-05-08T04:27:47.614Z,12.75
2023-05-08T04:30:52.530Z,9.00
2023-05-08T04:33:57.120Z,7.50
2023-05-08T04:37:01.241Z,10.50
2023-05-08T04:40:08.905Z,7.75
2023-05-08T04:43:12.625Z,9.00
2023-05-08T04:46:16.417Z,7.00
2023-05-08T04:49:20.185Z,8.50
2023-05-08T04:52:23.932Z,5.50
2023-05-08T04:55:28.884Z,6.75
2023-05-08T04:58:32.487Z,9.25
2023-05-08T05:01:36.524Z,9.00
2023-05-08T05:04:40.070Z,12.00
2023-05-08T05:07:43.862Z,9.25
2023-05-08T05:10:49.937Z,12.75
2023-05-08T05:13:53.672Z,12.25
2023-05-08T05:16:57.159Z,7.50
2023-05-08T05:20:00.805Z,9.00
2023-05-08T05:23:05.156Z,9.75
2023-05-08T05:26:10.290Z,8.00
2023-05-08T05:29:13.966Z,7.50
2023-05-08T05:32:17.975Z,18.00
2023-05-08T05:35:23.049Z,8.50
2023-05-08T05:38:28.725Z,4.00
2023-05-08T05:41:34.349Z,6.00
2023-05-08T05:44:39.100Z,13.75
2023-05-08T05:47:46.639Z,15.25
2023-05-08T05:50:50.533Z,5.00
2023-05-08T05:53:54.161Z,10.00
2023-05-08T05:57:00.125Z,7.50
2023-05-08T06:00:04.158Z,3.75
2023-05-08T06:03:17.926Z,8.50
2023-05-08T06:06:21.611Z,10.00
2023-05-08T06:09:25.166Z,6.00
2023-05-08T06:12:29.989Z,10.50
2023-05-08T06:15:35.457Z,11.00
2023-05-08T06:18:40.422Z,3.00
2023-05-08T06:21:44.003Z,9.00
2023-05-08T06:24:47.587Z,9.75
2023-05-08T06:27:52.508Z,9.00
2023-05-08T06:30:56.442Z,1.00
2023-05-08T06:34:00.125Z,10.50
2023-05-08T06:37:03.878Z,16.00
2023-05-08T06:40:12.062Z,10.00
2023-05-08T06:43:17.857Z,10.75
2023-05-08T06:46:21.891Z,7.50
2023-05-08T06:49:25.470Z,11.50
2023-05-08T06:52:29.073Z,14.00
2023-05-08T06:55:32.912Z,10.00
2023-05-08T06:58:37.986Z,10.50
2023-05-08T07:01:41.993Z,12.75
2023-05-08T07:04:45.577Z,7.00
2023-05-08T07:07:49.138Z,10.00
2023-05-08T07:10:53.387Z,9.75
2023-05-08T07:13:58.253Z,7.50
2023-05-08T07:17:07.008Z,9.25
2023-05-08T07:20:11.153Z,9.50
2023-05-08T07:23:14.812Z,9.00
2023-05-08T07:26:18.326Z,10.25
2023-05-08T07:29:23.352Z,10.00
2023-05-08T07:32:27.007Z,9.75
2023-05-08T07:35:30.721Z,3.50
2023-05-08T07:38:37.748Z,9.75
2023-05-08T07:41:43.317Z,6.25
2023-05-08T07:44:54.718Z,0.00
2023-05-08T07:48:00.198Z,0.25
2023-05-08T07:51:03.960Z,7.50
2023-05-08T07:54:08.023Z,6.00
2023-05-08T07:57:11.862Z,5.50
2023-05-08T08:00:17.982Z,7.00
2023-05-08T08:03:21.606Z,7.75
2023-05-08T08:06:25.255Z,4.00
2023-05-08T08:09:28.825Z,4.00
2023-05-08T08:12:32.641Z,6.00
2023-05-08T08:15:37.703Z,10.50
2023-05-08T08:18:41.441Z,9.00
2023-05-08T08:21:45.286Z,3.50
2023-05-08T08:24:52.411Z,6.75
2023-05-08T08:27:59.740Z,10.50
2023-05-08T08:31:05.601Z,4.00
2023-05-08T08:34:09.184Z,9.50
2023-05-08T08:37:15.409Z,1.00
2023-05-08T08:40:19.297Z,9.00
2023-05-08T08:43:22.883Z,9.50
2023-05-08T08:46:29.500Z,6.75
2023-05-08T08:49:36.192Z,4.50
2023-05-08T08:52:42.761Z,6.25
2023-05-08T08:55:49.811Z,3.75
2023-05-08T08:58:59.395Z,4.00
2023-05-08T09:02:13.178Z,6.50
2023-05-08T09:05:17.158Z,6.00
2023-05-08T09:08:20.846Z,6.00
2023-05-08T09:11:24.560Z,5.00
2023-05-08T09:14:28.169Z,6.75
2023-05-08T09:17:33.084Z,6.25
2023-05-08T09:20:37.248Z,3.25
2023-05-08T09:23:58.686Z,4.00
2023-05-08T09:27:02.169Z,5.00
2023-05-08T09:30:08.339Z,4.00
2023-05-08T09:33:13.629Z,4.25
2023-05-08T09:36:28.736Z,6.75
2023-05-08T09:39:32.367Z,5.00
2023-05-08T09:42:39.533Z,6.50
2023-05-08T09:45:43.160Z,3.00
2023-05-08T09:48:48.647Z,6.00
2023-05-08T09:51:56.581Z,3.00
2023-05-08T09:55:00.708Z,6.75
2023-05-08T09:58:04.698Z,8.00
2023-05-08T10:01:08.948Z,2.50
2023-05-08T10:04:13.828Z,6.25
2023-05-08T10:07:17.274Z,4.00
2023-05-08T10:10:26.280Z,4.50
2023-05-08T10:13:30.125Z,6.00
2023-05-08T10:16:41.525Z,3.00
2023-05-08T10:19:49.845Z,4.50
2023-05-08T10:22:55.078Z,4.00
2023-05-08T10:26:09.092Z,6.00
2023-05-08T10:29:20.271Z,1.67
2023-05-08T10:32:25.642Z,0.33
2023-05-08T10:35:31.660Z,2.33
2023-05-08T10:38:36.320Z,0.00
2023-05-08T10:41:40.323Z,3.00
2023-05-08T10:44:43.842Z,3.00
2023-05-08T10:48:00.987Z,2.33
2023-05-08T10:51:11.514Z,1.00
2023-05-08T10:54:21.882Z,4.67
2023-05-08T10:57:25.568Z,3.00
2023-05-08T11:00:35.351Z,1.00
2023-05-08T11:03:41.601Z,3.67
2023-05-08T11:06:53.186Z,3.00
2023-05-08T11:10:08.669Z,1.67
2023-05-08T11:13:13.758Z,8.33
2023-05-08T11:16:17.468Z,1.00
2023-05-08T11:19:22.310Z,0.00
2023-05-08T11:22:30.388Z,1.00
2023-05-08T11:25:43.931Z,2.67
2023-05-08T11:28:58.176Z,0.00
2023-05-08T11:32:01.624Z,3.00
2023-05-08T11:35:11.362Z,3.00
2023-05-08T11:38:22.704Z,1.00
2023-05-08T11:41:26.191Z,0.00
2023-05-08T11:44:30.796Z,2.00
2023-05-08T11:47:39.972Z,2.50
2023-05-08T11:50:43.900Z,1.00
2023-05-08T11:53:48.949Z,4.00
2023-05-08T11:56:57.114Z,2.67
2023-05-08T12:00:05.219Z,2.00
2023-05-08T12:03:14.554Z,1.00
2023-05-08T12:06:20.360Z,4.00
2023-05-08T12:09:25.505Z,4.67
2023-05-08T12:12:38.353Z,2.00
2023-05-08T12:15:42.122Z,4.00
2023-05-08T12:18:45.779Z,4.00
2023-05-08T12:21:50.233Z,4.00
2023-05-08T12:24:55.622Z,1.67
2023-05-08T12:28:00.606Z,2.00
2023-05-08T12:31:04.662Z,4.00
2023-05-08T12:34:10.233Z,1.00
2023-05-08T12:37:24.242Z,3.33
2023-05-08T12:40:31.546Z,4.00
2023-05-08T12:43:36.314Z,2.00
2023-05-08T12:46:48.491Z,1.67
2023-05-08T12:49:52.932Z,3.33
2023-05-08T12:52:56.309Z,2.67
2023-05-08T12:56:04.193Z,5.00
2023-05-08T12:59:07.584Z,5.00
2023-05-08T13:02:15.895Z,2.00
2023-05-08T13:05:21.608Z,5.67
2023-05-08T13:08:33.430Z,5.00
2023-05-08T13:11:39.420Z,1.67
2023-05-08T13:14:42.943Z,4.00
2023-05-08T13:17:46.410Z,1.00
2023-05-08T13:20:49.816Z,5.00
2023-05-08T13:23:53.300Z,1.00
2023-05-08T13:26:58.106Z,2.00
2023-05-08T13:30:01.433Z,4.00
2023-05-08T13:33:05.761Z,2.00
2023-05-08T13:36:10.089Z,2.00
2023-05-08T13:39:13.459Z,1.00
2023-05-08T13:42:18.557Z,1.00
2023-05-08T13:45:22.382Z,4.00
2023-05-08T13:48:26.089Z,3.33
2023-05-08T13:51:29.645Z,2.67
2023-05-08T13:54:32.984Z,4.33
2023-05-08T13:57:38.840Z,1.00
2023-05-08T14:00:42.562Z,1.67
2023-05-08T14:03:46.095Z,5.00
2023-05-08T14:06:49.533Z,1.00
2023-05-08T14:09:54.440Z,4.00
2023-05-08T14:12:59.641Z,3.33
2023-05-08T14:16:05.884Z,1.33
2023-05-08T14:19:09.445Z,2.00
2023-05-08T14:22:13.133Z,0.00
2023-05-08T14:25:16.921Z,2.00
2023-05-08T14:28:21.745Z,4.33
2023-05-08T14:31:25.460Z,2.00
2023-05-08T14:34:29.164Z,4.00
2023-05-08T14:37:32.900Z,0.00
2023-05-08T14:40:36.453Z,4.00
2023-05-08T14:43:44.060Z,2.00
2023-05-08T14:46:47.678Z,1.00
2023-05-08T14:49:51.191Z,1.00
2023-05-08T14:52:54.867Z,1.00
2023-05-08T14:56:00.121Z,5.00
2023-05-08T14:59:05.431Z,1.67
2023-05-08T15:02:09.264Z,1.00
2023-05-08T15:05:19.023Z,2.67
2023-05-08T15:08:23.320Z,1.67
2023-05-08T15:11:27.192Z,1.33
2023-05-08T15:14:32.600Z,1.67
2023-05-08T15:17:36.699Z,1.33
2023-05-08T15:20:40.351Z,2.00
2023-05-08T15:23:44.198Z,1.00
2023-05-08T15:26:47.585Z,2.00
2023-05-08T15:29:53.060Z,2.67
2023-05-08T15:32:57.751Z,4.67
2023-05-08T15:36:01.248Z,1.33
2023-05-08T15:39:05.063Z,1.00
2023-05-08T15:42:08.784Z,7.00
2023-05-08T15:45:13.918Z,2.67
2023-05-08T15:48:17.696Z,4.00
2023-05-08T15:51:21.432Z,1.00
2023-05-08T15:54:25.202Z,1.00
2023-05-08T15:57:28.615Z,0.00
2023-05-08T16:00:44.102Z,1.00
2023-05-08T16:03:49.335Z,2.00
2023-05-08T16:06:52.821Z,1.67
2023-05-08T16:09:56.568Z,2.00
2023-05-08T16:13:00.593Z,0.00
2023-05-08T16:16:07.248Z,2.00
2023-05-08T16:19:13.420Z,0.33
2023-05-08T16:22:16.803Z,2.00
2023-05-08T16:25:20.450Z,0.00
2023-05-08T16:28:23.825Z,1.00
2023-05-08T16:31:28.710Z,0.67
2023-05-08T16:34:32.795Z,1.00
2023-05-08T16:37:37.535Z,1.00
2023-05-08T16:40:41.966Z,1.00
2023-05-08T16:43:46.014Z,0.67
2023-05-08T16:46:51.518Z,3.67
2023-05-08T16:49:55.448Z,2.00
2023-05-08T16:52:59.146Z,0.33
2023-05-08T16:56:02.593Z,3.00
2023-05-08T16:59:07.158Z,3.67
2023-05-08T17:02:12.542Z,2.00
2023-05-08T17:05:16.212Z,3.00
2023-05-08T17:08:19.711Z,1.00
2023-05-08T17:11:23.217Z,0.67
2023-05-08T17:14:26.723Z,0.67
2023-05-08T17:17:31.589Z,1.00
2023-05-08T17:20:40.846Z,1.00
2023-05-08T17:23:45.791Z,1.00
2023-05-08T17:26:49.307Z,4.00
2023-05-08T17:29:52.696Z,1.00
2023-05-08T17:32:57.613Z,3.33
2023-05-08T17:36:02.377Z,2.33
2023-05-08T17:39:06.295Z,3.00
2023-05-08T17:42:09.763Z,4.00
2023-05-08T17:45:13.379Z,3.67
2023-05-08T17:48:18.181Z,2.33
2023-05-08T17:51:21.743Z,1.00
2023-05-08T17:54:25.358Z,3.00
2023-05-08T17:57:28.809Z,3.75
2023-05-08T18:00:32.575Z,3.00
2023-05-08T18:03:37.477Z,3.00
2023-05-08T18:06:40.927Z,3.00
2023-05-08T18:09:44.302Z,4.00
2023-05-08T18:12:47.678Z,4.00
2023-05-08T18:15:51.613Z,6.25
2023-05-08T18:18:56.950Z,4.00
2023-05-08T18:22:00.735Z,4.00
2023-05-08T18:25:04.571Z,4.00
2023-05-08T18:28:08.183Z,3.00
2023-05-08T18:31:12.369Z,3.00
2023-05-08T18:34:17.443Z,4.50
2023-05-08T18:37:21.004Z,6.50
2023-05-08T18:40:24.923Z,3.75
2023-05-08T18:43:28.305Z,3.25
2023-05-08T18:46:31.717Z,2.50
2023-05-08T18:49:38.175Z,4.00
2023-05-08T18:52:41.552Z,3.00
2023-05-08T18:55:45.245Z,3.00
2023-05-08T18:58:52.256Z,3.75
2023-05-08T19:01:59.270Z,6.00
2023-05-08T19:05:04.525Z,7.00
2023-05-08T19:08:08.838Z,9.75
2023-05-08T19:11:13.382Z,5.50
2023-05-08T19:14:17.428Z,7.00
2023-05-08T19:17:21.065Z,6.00
2023-05-08T19:20:26.238Z,7.00
2023-05-08T19:23:29.828Z,4.50
2023-05-08T19:26:33.561Z,7.00
2023-05-08T19:29:37.306Z,6.00
2023-05-08T19:32:40.957Z,3.50
2023-05-08T19:35:48.162Z,0.00
2023-05-08T19:38:51.749Z,6.75
2023-05-08T19:41:55.439Z,6.00
2023-05-08T19:44:59.184Z,3.50
2023-05-08T19:48:04.616Z,4.00
2023-05-08T19:51:16.436Z,3.25
2023-05-08T19:54:20.133Z,5.50
2023-05-08T19:57:23.606Z,6.00
2023-05-08T20:00:29.170Z,2.50
2023-05-08T20:03:32.927Z,1.00
2023-05-08T20:06:39.384Z,4.50
2023-05-08T20:09:43.274Z,4.50
2023-05-08T20:12:47.128Z,3.00
2023-05-08T20:15:50.758Z,5.00
2023-05-08T20:18:54.699Z,3.00
2023-05-08T20:21:59.759Z,3.00
2023-05-08T20:25:04.874Z,2.50
2023-05-08T20:28:08.979Z,5.50
2023-05-08T20:31:14.933Z,1.00
2023-05-08T20:34:22.106Z,2.50
2023-05-08T20:37:27.161Z,1.00
2023-05-08T20:40:30.845Z,2.00
2023-05-08T20:43:35.421Z,1.00
2023-05-08T20:46:40.326Z,4.50
2023-05-08T20:49:43.849Z,1.00
2023-05-08T20:52:48.671Z,4.00
2023-05-08T20:55:53.404Z,1.00
2023-05-08T20:58:57.129Z,3.00
2023-05-08T21:02:00.789Z,3.25
2023-05-08T21:05:04.501Z,1.00
2023-05-08T21:08:09.519Z,4.00
2023-05-08T21:11:13.809Z,3.00
2023-05-08T21:14:17.334Z,3.00
2023-05-08T21:17:20.729Z,3.00
2023-05-08T21:20:24.444Z,3.00
2023-05-08T21:23:30.983Z,2.00
2023-05-08T21:26:35.205Z,4.00
2023-05-08T21:29:38.653Z,1.50
2023-05-08T21:32:42.946Z,5.50
2023-05-08T21:35:47.622Z,1.00
2023-05-08T21:38:53.098Z,1.50
2023-05-08T21:41:56.438Z,3.00
2023-05-08T21:45:00.503Z,3.75
2023-05-08T21:48:04.495Z,3.25
2023-05-08T21:51:08.062Z,6.00
2023-05-08T21:54:13.026Z,6.50
2023-05-08T21:57:17.142Z,6.00
2023-05-08T22:00:21.370Z,5.00
2023-05-08T22:03:25.106Z,4.75
2023-05-08T22:06:28.814Z,3.75
2023-05-08T22:09:35.826Z,7.25
2023-05-08T22:12:39.443Z,7.00
2023-05-08T22:15:43.664Z,7.00
2023-05-08T22:18:47.342Z,8.50
2023-05-08T22:21:50.825Z,6.25
2023-05-08T22:24:55.592Z,6.00
2023-05-08T22:28:01.433Z,3.25
2023-05-08T22:31:05.180Z,5.50
2023-05-08T22:34:09.059Z,7.00
2023-05-08T22:37:12.593Z,2.50
2023-05-08T22:40:18.931Z,2.50
2023-05-08T22:43:23.318Z,6.25
2023-05-08T22:46:27.016Z,4.00
2023-05-08T22:49:31.312Z,4.00
2023-05-08T22:52:34.770Z,3.50
2023-05-08T22:55:39.802Z,8.00
2023-05-08T22:58:43.740Z,6.25
2023-05-08T23:01:47.437Z,4.50
2023-05-08T23:04:51.071Z,7.00
2023-05-08T23:07:54.662Z,6.50
2023-05-08T23:10:59.762Z,5.50
2023-05-08T23:14:04.035Z,6.50
2023-05-08T23:17:07.541Z,3.25
2023-05-08T23:20:11.817Z,5.75
2023-05-08T23:23:15.384Z,6.00
2023-05-08T23:26:20.302Z,5.50
2023-05-08T23:29:23.650Z,10.00
2023-05-08T23:32:27.302Z,7.25
2023-05-08T23:35:31.007Z,7.50
2023-05-08T23:38:34.397Z,6.75
2023-05-08T23:41:39.539Z,7.00
2023-05-08T23:44:43.053Z,9.50
2023-05-08T23:47:46.632Z,6.75
2023-05-08T23:50:50.477Z,9.00
2023-05-08T23:53:56.805Z,8.50
2023-05-08T23:57:08.230Z,9.00
